Time;durP1;ratioP1;P1;durP2;ratioP2;P2;SDS_P1;SDS_P2;PMS_P1;PMS_P2;Temp;Humidity;BMP_temperature;BMP_pressure;BME280_temperature;BME280_humidity;BME280_pressure;Samples;Min_cycle;Max_cycle;Signal;HPM_P1;HPM_P2
2022/09/07 00:00:37;;;;;;;9.10;7.43;;;;;;;20.80;56.74;101538.22;5086503;28;20421;-58
2022/09/07 00:03:03;;;;;;;9.27;7.13;;;;;;;20.80;56.73;101535.53;5086821;28;20861;-58
2022/09/07 00:05:30;;;;;;;9.25;7.35;;;;;;;20.78;56.74;101537.63;5074884;28;20931;-57
2022/09/07 00:07:56;;;;;;;8.88;7.43;;;;;;;20.76;56.59;101532.44;5065807;28;20396;-59
2022/09/07 00:13:17;;;;;;;8.40;7.50;;;;;;;20.75;56.63;101536.16;5075723;27;2068872;-59
2022/09/07 00:15:42;;;;;;;12.55;8.05;;;;;;;20.75;56.82;101527.25;5137406;27;20389;-59
2022/09/07 00:18:08;;;;;;;10.17;7.70;;;;;;;20.78;56.79;101537.63;5138289;27;20461;-59
2022/09/07 00:20:34;;;;;;;10.43;8.10;;;;;;;20.76;56.85;101532.44;5136359;27;20375;-59
2022/09/07 00:22:59;;;;;;;13.77;8.65;;;;;;;20.76;56.94;101536.97;5138034;27;20377;-60
2022/09/07 00:25:25;;;;;;;11.93;8.83;;;;;;;20.74;56.83;101531.84;5137802;27;20371;-59
2022/09/07 00:27:50;;;;;;;11.98;8.60;;;;;;;20.73;56.96;101532.06;5136715;27;20812;-58
2022/09/07 00:30:16;;;;;;;12.30;8.43;;;;;;;20.70;57.00;101525.22;5137944;27;20759;-59
2022/09/07 00:32:41;;;;;;;9.80;8.13;;;;;;;20.69;57.00;101526.28;5137312;27;20456;-59
2022/09/07 00:37:39;;;;;;;9.70;8.20;;;;;;;20.61;57.19;101529.22;5087096;27;20815;-59
2022/09/07 00:40:05;;;;;;;10.73;8.77;;;;;;;20.56;57.14;101524.47;5086669;28;20952;-58
2022/09/07 00:42:30;;;;;;;10.13;9.00;;;;;;;20.53;57.16;101519.50;5086127;28;20382;-58
2022/09/07 00:46:32;;;;;;;11.32;8.73;;;;;;;20.52;57.33;101528.59;5046354;28;20459;-59
2022/09/07 00:49:06;;;;;;;11.68;9.25;;;;;;;20.57;57.25;101536.03;5043928;28;20405;-59
2022/09/07 00:51:39;;;;;;;12.57;8.55;;;;;;;20.49;57.29;101526.38;5046305;28;20389;-59
2022/09/07 00:54:08;;;;;;;9.82;7.88;;;;;;;20.44;57.47;101526.19;5046115;28;20388;-58
2022/09/07 00:56:38;;;;;;;10.20;8.33;;;;;;;20.40;57.67;101533.88;5045932;28;20443;-59
2022/09/07 00:59:04;;;;;;;9.35;8.45;;;;;;;20.38;57.56;101527.03;5046242;28;20389;-59
2022/09/07 01:01:30;;;;;;;10.73;9.20;;;;;;;20.40;57.67;101524.94;5046493;28;20452;-59
2022/09/07 01:03:58;;;;;;;10.60;8.50;;;;;;;20.43;57.51;101519.13;5043638;28;20396;-58
2022/09/07 01:06:37;;;;;;;11.63;9.20;;;;;;;20.43;57.51;101521.81;5045777;28;20413;-59
2022/09/07 01:09:09;;;;;;;11.40;8.68;;;;;;;20.39;57.58;101513.34;5043992;28;20768;-59
2022/09/07 01:11:35;;;;;;;10.25;8.80;;;;;;;20.37;57.62;101514.63;5045787;28;20461;-59
2022/09/07 01:14:04;;;;;;;12.80;9.40;;;;;;;20.37;57.75;101523.50;5045949;28;20382;-59
2022/09/07 01:16:35;;;;;;;14.02;9.93;;;;;;;20.37;57.61;101511.94;5045862;28;20384;-59
2022/09/07 01:19:22;;;;;;;10.57;8.88;;;;;;;20.33;57.70;101516.91;5044005;28;20381;-59
2022/09/07 01:22:06;;;;;;;11.95;9.10;;;;;;;20.33;57.69;101521.44;5044388;28;20390;-59
2022/09/07 01:25:01;;;;;;;13.90;8.82;;;;;;;20.30;57.59;101519.22;5043847;28;20535;-58
2022/09/07 01:27:45;;;;;;;10.30;9.20;;;;;;;20.25;57.62;101519.84;5043655;28;20389;-58
2022/09/07 01:30:13;;;;;;;10.57;8.38;;;;;;;20.25;57.77;101522.53;5044815;28;20429;-59
2022/09/07 01:33:10;;;;;;;12.57;9.00;;;;;;;20.21;57.74;101516.75;5045633;28;20396;-59
2022/09/07 01:37:49;;;;;;;12.35;8.85;;;;;;;20.21;57.78;101522.13;5088276;27;20402;-58
2022/09/07 01:40:22;;;;;;;12.88;9.30;;;;;;;20.21;57.80;101526.72;5079187;28;20438;-58
2022/09/07 01:42:56;;;;;;;10.73;9.15;;;;;;;20.19;57.86;101526.91;5086227;28;20957;-59
2022/09/07 01:45:27;;;;;;;12.30;9.27;;;;;;;20.13;57.88;101522.41;5084240;28;20815;-58
2022/09/07 01:47:57;;;;;;;10.93;9.30;;;;;;;20.17;57.96;101530.88;5086345;28;20401;-58
2022/09/07 01:50:35;;;;;;;14.27;9.75;;;;;;;20.10;58.13;101527.38;5086339;28;20405;-59
2022/09/07 01:53:14;;;;;;;11.65;8.85;;;;;;;20.11;58.09;101532.53;5083072;28;20382;-59
2022/09/07 01:56:13;;;;;;;12.88;9.52;;;;;;;20.04;58.08;101529.88;5081193;28;20420;-58
2022/09/07 01:58:58;;;;;;;10.77;8.95;;;;;;;20.03;58.17;101525.53;5077959;28;20432;-59
2022/09/07 02:02:08;;;;;;;12.93;9.27;;;;;;;19.99;58.22;101518.13;5047689;28;20405;-59
2022/09/07 02:04:43;;;;;;;13.40;9.00;;;;;;;19.98;58.18;101519.94;5045604;28;20455;-58
2022/09/07 02:07:31;;;;;;;12.88;9.35;;;;;;;19.99;57.91;101510.84;5045991;28;20382;-59
2022/09/07 02:10:12;;;;;;;12.97;9.73;;;;;;;19.97;58.03;101509.41;5038575;28;20442;-60
2022/09/07 02:13:02;;;;;;;13.55;9.35;;;;;;;19.94;57.88;101504.47;5042138;28;20397;-59
2022/09/07 02:15:50;;;;;;;13.95;10.30;;;;;;;19.95;57.86;101509.63;5043826;28;20492;-60
2022/09/07 02:18:16;;;;;;;13.45;9.48;;;;;;;19.85;58.07;101507.38;5045758;28;20393;-57
2022/09/07 02:22:24;;;;;;;12.20;10.05;;;;;;;19.83;58.13;101498.69;5067794;27;20407;-59
2022/09/07 02:24:53;;;;;;;12.45;9.95;;;;;;;19.83;57.95;101504.06;5066370;28;20495;-58
2022/09/07 02:27:26;;;;;;;13.80;9.80;;;;;;;19.80;57.98;101507.19;5063523;28;20889;-60
2022/09/07 02:29:52;;;;;;;12.13;9.30;;;;;;;19.74;58.10;101499.16;5063817;28;20404;-59
2022/09/07 02:32:19;;;;;;;11.80;9.88;;;;;;;19.75;58.11;101500.78;5063971;28;20376;-60
2022/09/07 02:34:45;;;;;;;12.77;9.60;;;;;;;19.73;58.15;101506.38;5064088;28;20476;-58
2022/09/07 02:39:16;;;;;;;11.73;9.52;;;;;;;19.71;58.18;101508.44;5043728;28;20455;-60
2022/09/07 02:41:43;;;;;;;10.77;9.48;;;;;;;19.71;57.97;101502.22;5044109;28;20463;-61
2022/09/07 02:44:33;;;;;;;12.30;9.50;;;;;;;19.68;57.97;101501.63;5046257;28;20957;-58
2022/09/07 02:48:42;;;;;;;12.82;9.30;;;;;;;19.60;58.04;101499.13;5047116;28;20406;-60
2022/09/07 02:51:14;;;;;;;13.10;9.52;;;;;;;19.61;58.13;101495.44;5045202;28;20405;-59
2022/09/07 02:54:11;;;;;;;12.30;9.68;;;;;;;19.57;58.04;101490.66;5044114;28;20888;-59
2022/09/07 02:56:50;;;;;;;13.83;9.90;;;;;;;19.53;58.21;101497.50;5043029;28;20415;-59
2022/09/07 02:59:37;;;;;;;13.75;10.05;;;;;;;19.47;58.11;101494.63;5044916;28;20455;-59
2022/09/07 03:02:27;;;;;;;12.40;9.75;;;;;;;19.47;58.26;101502.69;5041554;28;20432;-59
2022/09/07 03:05:31;;;;;;;16.38;9.73;;;;;;;19.45;58.13;101495.88;5067131;27;20395;-58
2022/09/07 03:10:32;;;;;;;11.27;10.05;;;;;;;19.39;58.31;101512.84;5062771;28;20408;-58
2022/09/07 03:12:58;;;;;;;11.13;9.88;;;;;;;19.36;58.59;101508.72;5053015;28;20467;-58
2022/09/07 03:15:25;;;;;;;14.23;10.33;;;;;;;19.37;58.23;101522.97;5056405;28;20376;-60
2022/09/07 03:18:44;;;;;;;12.85;9.38;;;;;;;19.31;58.18;101523.81;5066992;27;20804;-59
2022/09/07 03:21:10;;;;;;;11.98;9.55;;;;;;;19.25;58.16;101525.47;5066433;28;20450;-58
2022/09/07 03:23:36;;;;;;;11.00;9.13;;;;;;;19.20;57.99;101523.41;5066199;28;20384;-59
2022/09/07 03:26:03;;;;;;;15.40;9.45;;;;;;;19.15;58.02;101514.31;5066215;28;20885;-58
2022/09/07 03:28:48;;;;;;;13.93;9.57;;;;;;;19.16;58.09;101518.63;5086745;27;20923;-58
2022/09/07 03:31:14;;;;;;;13.10;9.10;;;;;;;19.16;58.08;101530.25;5086448;28;20390;-58
2022/09/07 03:35:22;;;;;;;13.18;9.27;;;;;;;19.13;58.11;101525.28;5047430;28;20413;-58
2022/09/07 03:39:22;;;;;;;16.10;9.20;;;;;;;19.10;58.01;101526.53;5047765;28;20409;-58
2022/09/07 03:41:48;;;;;;;12.00;9.10;;;;;;;19.09;58.03;101521.34;5046469;28;20404;-58
2022/09/07 03:44:14;;;;;;;16.27;9.23;;;;;;;19.02;58.13;101524.03;5046297;28;20444;-57
2022/09/07 03:46:39;;;;;;;12.70;9.00;;;;;;;19.01;58.15;101530.41;5046416;28;20871;-58
2022/09/07 03:49:05;;;;;;;12.93;9.17;;;;;;;19.03;58.26;101532.91;5046370;28;20385;-59
2022/09/07 03:51:31;;;;;;;13.23;10.02;;;;;;;18.98;58.21;101540.75;5045946;28;20382;-58
2022/09/07 03:53:58;;;;;;;13.47;9.43;;;;;;;18.98;58.22;101548.81;5045860;28;20385;-58
2022/09/07 03:56:24;;;;;;;13.18;10.00;;;;;;;18.96;58.21;101545.50;5046066;28;20382;-58
2022/09/07 03:58:52;;;;;;;13.93;10.33;;;;;;;18.97;58.30;101547.19;5045835;28;20471;-56
2022/09/07 04:01:22;;;;;;;14.77;10.30;;;;;;;18.95;58.38;101544.69;5043409;28;20390;-58
2022/09/07 04:03:48;;;;;;;16.52;10.75;;;;;;;18.97;58.39;101545.31;5045934;28;20378;-59
2022/09/07 04:06:15;;;;;;;14.18;10.50;;;;;;;19.05;58.50;101555.00;5045984;28;20461;-58
2022/09/07 04:08:41;;;;;;;13.15;10.70;;;;;;;19.05;58.25;101553.19;5044672;28;20388;-58
2022/09/07 04:11:09;;;;;;;16.20;10.25;;;;;;;19.10;58.28;101561.47;5046145;28;20385;-58
2022/09/07 04:13:36;;;;;;;15.95;10.85;;;;;;;19.15;58.16;101558.13;5045779;28;20405;-57
2022/09/07 04:16:12;;;;;;;15.30;10.30;;;;;;;19.27;57.91;101566.41;5045880;28;20389;-58
2022/09/07 04:18:37;;;;;;;19.75;11.63;;;;;;;19.37;57.80;101563.31;5045908;28;20471;-58
2022/09/07 04:21:03;;;;;;;17.50;11.23;;;;;;;19.41;57.39;101551.94;5045663;28;20381;-57
2022/09/07 04:23:28;;;;;;;15.87;11.17;;;;;;;19.52;57.25;101558.53;5045658;28;20418;-58
2022/09/07 04:25:54;;;;;;;17.55;11.90;;;;;;;19.65;56.76;101555.81;5045312;28;20952;-57
2022/09/07 04:28:20;;;;;;;17.67;12.23;;;;;;;19.78;56.62;101554.19;5045626;28;20377;-58
2022/09/07 04:30:46;;;;;;;19.42;11.68;;;;;;;19.90;56.19;101549.81;5045264;28;20389;-57
2022/09/07 04:33:12;;;;;;;20.13;11.73;;;;;;;20.05;55.85;101558.44;5044788;28;20447;-58
2022/09/07 04:35:39;;;;;;;18.67;11.88;;;;;;;20.27;55.60;101558.16;5044356;28;20405;-58
2022/09/07 04:38:05;;;;;;;19.02;11.85;;;;;;;20.38;55.15;101562.88;5043026;28;20462;-57
2022/09/07 04:40:31;;;;;;;17.95;11.95;;;;;;;20.57;54.70;101557.59;5044987;28;20381;-57
2022/09/07 04:42:57;;;;;;;20.05;12.57;;;;;;;20.75;54.23;101556.91;5044314;28;20440;-58
2022/09/07 04:45:23;;;;;;;19.88;12.00;;;;;;;20.98;53.71;101557.16;5043340;28;20378;-58
2022/09/07 04:47:49;;;;;;;19.83;12.97;;;;;;;21.22;53.38;101545.78;5043640;28;20402;-59
2022/09/07 04:50:16;;;;;;;22.27;13.25;;;;;;;21.44;52.65;101551.59;5033051;28;20383;-58
2022/09/07 04:52:42;;;;;;;20.92;13.60;;;;;;;21.63;52.50;101553.31;5030909;28;20932;-59
2022/09/07 04:55:09;;;;;;;20.73;13.87;;;;;;;21.86;51.90;101549.94;5031573;28;20379;-58
2022/09/07 04:57:34;;;;;;;30.40;14.80;;;;;;;22.17;51.11;101548.13;5031323;28;20414;-57
2022/09/07 05:00:00;;;;;;;23.60;14.17;;;;;;;22.42;50.60;101552.59;5030301;28;20447;-59
2022/09/07 05:02:26;;;;;;;35.30;14.95;;;;;;;22.73;50.08;101554.25;5029572;28;20393;-59
2022/09/07 05:04:51;;;;;;;24.87;14.03;;;;;;;23.08;49.22;101553.53;5029179;28;20413;-59
2022/09/07 05:07:17;;;;;;;21.80;13.95;;;;;;;23.41;48.47;101546.75;5029228;28;20777;-59
2022/09/07 05:09:42;;;;;;;22.83;14.33;;;;;;;23.74;47.81;101551.53;5029644;28;20382;-60
2022/09/07 05:12:08;;;;;;;24.57;13.50;;;;;;;24.14;46.75;101555.38;5029957;28;20390;-59
2022/09/07 05:14:33;;;;;;;21.48;13.30;;;;;;;24.33;46.14;101559.53;5030320;28;20394;-58
2022/09/07 05:16:59;;;;;;;18.43;12.83;;;;;;;24.57;45.51;101556.75;5031084;28;20405;-59
2022/09/07 05:19:26;;;;;;;26.55;13.55;;;;;;;24.93;44.67;101560.09;5031128;28;20990;-59
2022/09/07 05:21:52;;;;;;;18.50;12.63;;;;;;;25.34;43.89;101555.38;5031072;28;20378;-59
2022/09/07 05:24:18;;;;;;;18.43;12.27;;;;;;;25.72;42.83;101559.16;5031231;28;20424;-57
2022/09/07 05:26:44;;;;;;;19.02;11.70;;;;;;;26.05;42.39;101558.25;5031795;28;20395;-58
2022/09/07 05:29:10;;;;;;;18.55;12.63;;;;;;;26.41;41.76;101558.63;5031861;28;20411;-58
2022/09/07 05:31:35;;;;;;;19.60;12.00;;;;;;;26.70;41.29;101559.25;5031519;28;20378;-58
2022/09/07 05:34:01;;;;;;;20.75;13.45;;;;;;;27.07;40.60;101560.38;5031478;28;20752;-58
2022/09/07 05:36:28;;;;;;;16.30;11.98;;;;;;;27.62;39.47;101552.84;5031629;28;20379;-57
2022/09/07 05:38:55;;;;;;;20.13;12.20;;;;;;;28.18;38.65;101550.41;5031596;28;20418;-58
2022/09/07 05:41:25;;;;;;;17.77;12.55;;;;;;;28.69;37.46;101555.16;5031307;28;20378;-58
2022/09/07 05:43:52;;;;;;;16.85;11.65;;;;;;;29.47;36.34;101551.28;5031235;28;20378;-58
2022/09/07 05:46:17;;;;;;;14.85;12.00;;;;;;;30.39;34.70;101550.13;5031281;28;20473;-58
2022/09/07 05:48:44;;;;;;;15.67;12.47;;;;;;;31.11;33.78;101549.56;5031508;28;20390;-58
2022/09/07 05:51:11;;;;;;;14.90;11.82;;;;;;;31.74;32.87;101545.09;5031263;28;20872;-58
2022/09/07 05:53:38;;;;;;;14.68;11.50;;;;;;;32.15;32.32;101544.59;5030429;28;20394;-58
2022/09/07 05:56:04;;;;;;;13.43;11.82;;;;;;;32.68;31.33;101549.84;5030577;28;20416;-59
2022/09/07 05:58:31;;;;;;;14.63;10.83;;;;;;;33.05;30.68;101541.81;5030402;28;20792;-59
2022/09/07 06:00:58;;;;;;;15.45;11.43;;;;;;;33.24;30.49;101545.34;5029248;28;20394;-59
2022/09/07 06:03:24;;;;;;;12.93;11.53;;;;;;;33.61;30.27;101548.19;5030117;28;20784;-59
2022/09/07 06:06:14;;;;;;;14.95;12.20;;;;;;;33.87;29.80;101540.22;5028445;28;20402;-59
2022/09/07 06:08:44;;;;;;;18.50;13.47;;;;;;;34.16;29.23;101531.63;5027508;28;20464;-59
2022/09/07 06:11:13;;;;;;;14.80;13.00;;;;;;;34.51;28.64;101531.94;5029746;28;20459;-58
2022/09/07 06:13:38;;;;;;;13.02;11.35;;;;;;;34.78;28.09;101535.69;5029728;28;20394;-58
2022/09/07 06:16:06;;;;;;;13.45;11.55;;;;;;;35.02;27.58;101535.34;5029882;28;20753;-59
2022/09/07 06:18:36;;;;;;;12.82;11.40;;;;;;;35.11;27.52;101530.69;5029726;28;20425;-59
2022/09/07 06:21:08;;;;;;;12.25;10.85;;;;;;;33.22;29.75;101533.81;5030081;28;20405;-58
2022/09/07 06:23:36;;;;;;;13.07;11.40;;;;;;;32.94;30.05;101538.44;5030158;28;20402;-58
2022/09/07 06:26:01;;;;;;;12.63;11.43;;;;;;;35.08;27.39;101536.84;5030161;28;20397;-58
2022/09/07 06:28:34;;;;;;;12.82;11.40;;;;;;;35.03;27.23;101535.03;5030282;28;20398;-59
2022/09/07 06:31:01;;;;;;;13.10;11.50;;;;;;;34.91;27.66;101537.53;5029512;28;20409;-59
2022/09/07 06:33:27;;;;;;;14.00;11.23;;;;;;;36.61;25.31;101536.19;5029974;28;20923;-59
2022/09/07 06:36:04;;;;;;;13.88;11.35;;;;;;;37.66;23.95;101542.19;5030392;28;20402;-59
2022/09/07 06:38:32;;;;;;;12.75;11.18;;;;;;;38.08;23.28;101541.41;5030120;28;20426;-59
2022/09/07 06:41:11;;;;;;;15.95;11.57;;;;;;;37.80;23.85;101541.94;5029531;28;20501;-58
2022/09/07 06:43:37;;;;;;;17.90;11.70;;;;;;;38.17;23.38;101547.72;5030088;28;20436;-59
2022/09/07 06:46:04;;;;;;;12.63;11.15;;;;;;;38.75;22.68;101552.56;5029844;28;20451;-58
2022/09/07 06:48:30;;;;;;;16.02;11.50;;;;;;;39.80;21.39;101537.41;5030024;28;20524;-59
2022/09/07 06:51:01;;;;;;;12.55;10.95;;;;;;;40.65;20.41;101535.50;5029508;28;20400;-59
2022/09/07 06:53:29;;;;;;;13.00;10.80;;;;;;;40.86;20.13;101544.44;5028217;28;20399;-58
2022/09/07 06:55:55;;;;;;;11.63;10.45;;;;;;;40.61;20.51;101542.94;5028430;28;20473;-58
2022/09/07 06:58:23;;;;;;;12.30;10.50;;;;;;;41.41;19.62;101547.38;5029380;28;20525;-59
2022/09/07 07:00:49;;;;;;;14.40;10.52;;;;;;;41.82;19.46;101547.94;5029715;28;20485;-59
2022/09/07 07:03:14;;;;;;;13.57;10.10;;;;;;;42.18;18.93;101556.28;5029267;28;20478;-59
2022/09/07 07:05:40;;;;;;;11.55;10.35;;;;;;;42.46;18.79;101539.28;5028895;28;20493;-60
2022/09/07 07:08:06;;;;;;;11.60;10.40;;;;;;;42.35;18.54;101553.00;5028864;28;20393;-59
2022/09/07 07:12:48;;;;;;;14.20;10.30;;;;;;;41.34;19.38;101558.34;5062252;28;20467;-58
2022/09/07 07:15:14;;;;;;;12.23;10.30;;;;;;;40.84;19.93;101557.06;5045428;28;20401;-59
2022/09/07 07:17:39;;;;;;;13.47;10.60;;;;;;;39.78;21.00;101562.75;5046033;28;20798;-58
2022/09/07 07:20:06;;;;;;;14.07;10.43;;;;;;;38.04;22.87;101566.19;5046925;28;20937;-59
2022/09/07 07:22:31;;;;;;;13.45;10.25;;;;;;;36.24;25.33;101566.09;5045660;28;20380;-58
2022/09/07 07:24:58;;;;;;;12.55;10.20;;;;;;;35.41;26.58;101562.13;5044695;28;20403;-58
2022/09/07 07:27:23;;;;;;;11.15;9.75;;;;;;;34.90;26.98;101565.41;5044856;28;20405;-60
2022/09/07 07:29:49;;;;;;;14.17;9.70;;;;;;;33.85;28.07;101558.97;5042997;28;20382;-57
2022/09/07 07:32:14;;;;;;;11.93;9.20;;;;;;;33.39;29.16;101571.69;5044871;28;20421;-58
2022/09/07 07:34:40;;;;;;;12.07;8.87;;;;;;;32.96;29.30;101556.22;5045704;28;20433;-58
2022/09/07 07:37:05;;;;;;;10.83;8.97;;;;;;;32.79;30.19;101558.75;5046360;28;20766;-59
2022/09/07 07:39:31;;;;;;;10.23;9.17;;;;;;;32.47;30.10;101567.72;5046504;28;20386;-59
2022/09/07 07:41:56;;;;;;;11.40;8.63;;;;;;;32.28;30.42;101554.81;5045140;28;20452;-59
2022/09/07 07:44:22;;;;;;;10.57;8.83;;;;;;;31.78;31.23;101565.31;5045097;28;20882;-60
2022/09/07 07:46:49;;;;;;;11.73;8.60;;;;;;;31.64;31.34;101573.47;5046065;28;20412;-58
2022/09/07 07:49:15;;;;;;;12.98;9.18;;;;;;;31.54;31.89;101571.63;5046117;28;20435;-58
2022/09/07 07:51:40;;;;;;;10.73;9.20;;;;;;;30.85;32.91;101574.41;5046053;28;20422;-57
2022/09/07 07:54:06;;;;;;;12.13;9.85;;;;;;;30.26;33.62;101567.13;5046336;28;20381;-57
2022/09/07 07:56:32;;;;;;;10.90;8.50;;;;;;;29.82;34.04;101573.34;5045875;28;20764;-59
2022/09/07 07:58:57;;;;;;;9.27;8.27;;;;;;;29.61;34.29;101573.41;5045658;28;20390;-58
2022/09/07 08:01:23;;;;;;;12.75;7.97;;;;;;;29.63;34.40;101567.66;5045969;28;20377;-58
2022/09/07 08:03:49;;;;;;;13.48;9.20;;;;;;;29.49;34.85;101568.22;5046124;28;20393;-58
2022/09/07 08:07:31;;;;;;;11.82;8.50;;;;;;;29.27;35.46;101570.47;5065943;28;20829;-58
2022/09/07 08:09:56;;;;;;;10.53;8.57;;;;;;;28.85;35.88;101577.81;5067299;28;20422;-57
2022/09/07 08:12:22;;;;;;;11.17;8.70;;;;;;;28.64;36.30;101576.16;5066936;28;20414;-58
2022/09/07 08:14:47;;;;;;;10.82;8.07;;;;;;;28.57;36.36;101566.31;5065609;28;20428;-58
2022/09/07 08:17:15;;;;;;;11.30;8.93;;;;;;;28.33;36.81;101563.25;5067225;28;20415;-57
2022/09/07 08:19:41;;;;;;;11.27;8.87;;;;;;;27.83;38.09;101575.56;5066754;28;20383;-57
2022/09/07 08:22:09;;;;;;;11.70;8.80;;;;;;;27.77;38.31;101574.75;5066900;28;20379;-57
2022/09/07 08:24:35;;;;;;;9.77;8.83;;;;;;;27.74;38.77;101566.28;5066528;28;20380;-60
2022/09/07 08:27:00;;;;;;;9.55;8.02;;;;;;;27.98;38.26;101558.50;5066358;28;20418;-57
2022/09/07 08:29:27;;;;;;;9.43;7.40;;;;;;;27.85;37.73;101551.59;5066678;28;20767;-57
2022/09/07 08:31:52;;;;;;;9.18;7.35;;;;;;;27.37;38.52;101554.38;5066434;28;20387;-57
2022/09/07 08:34:18;;;;;;;8.97;7.10;;;;;;;27.26;38.65;101560.78;5066676;28;20368;-58
2022/09/07 08:36:43;;;;;;;8.25;6.70;;;;;;;27.04;39.03;101555.44;5066529;28;20383;-57
2022/09/07 08:39:09;;;;;;;11.13;6.93;;;;;;;27.15;38.90;101556.34;5066082;28;20786;-57
2022/09/07 08:41:55;;;;;;;11.70;7.00;;;;;;;27.00;38.98;101554.34;5064772;28;20384;-58
2022/09/07 08:44:23;;;;;;;9.02;6.80;;;;;;;26.99;38.91;101555.41;5065788;28;20905;-58
2022/09/07 08:46:51;;;;;;;7.95;6.25;;;;;;;26.99;39.28;101556.25;5066260;28;20416;-57
2022/09/07 08:49:35;;;;;;;10.25;6.88;;;;;;;26.91;39.40;101547.72;5066200;28;20392;-57
2022/09/07 08:52:17;;;;;;;7.70;6.43;;;;;;;26.96;39.26;101543.16;5065906;28;20380;-57
2022/09/07 08:54:52;;;;;;;7.35;5.63;;;;;;;26.90;38.92;101549.59;5065744;28;20392;-58
2022/09/07 08:57:26;;;;;;;7.72;5.70;;;;;;;26.79;38.93;101547.88;5065251;28;20439;-58
2022/09/07 09:00:04;;;;;;;9.23;6.07;;;;;;;26.81;39.10;101534.84;5065913;28;20391;-57
2022/09/07 09:02:30;;;;;;;7.95;6.47;;;;;;;26.62;39.54;101531.69;5065762;28;20401;-57
2022/09/07 09:04:55;;;;;;;9.47;6.17;;;;;;;26.62;39.89;101542.56;5065689;28;20372;-57
2022/09/07 09:07:44;;;;;;;9.27;6.13;;;;;;;26.66;39.48;101540.97;5084690;28;21046;-57
2022/09/07 09:10:17;;;;;;;10.43;5.97;;;;;;;26.52;39.45;101538.66;5086469;28;20761;-58
2022/09/07 09:13:04;;;;;;;8.70;5.47;;;;;;;26.63;39.19;101533.31;5085731;28;20370;-57
2022/09/07 09:15:57;;;;;;;7.10;5.97;;;;;;;26.54;39.92;101532.13;5085929;28;20371;-57
2022/09/07 09:18:22;;;;;;;6.55;5.47;;;;;;;26.52;40.12;101529.66;5074877;28;20482;-57
2022/09/07 09:20:54;;;;;;;8.33;6.20;;;;;;;26.67;39.94;101516.25;5071707;28;20454;-58
2022/09/07 09:23:24;;;;;;;8.45;6.20;;;;;;;26.61;39.96;101517.25;5070228;28;20746;-57
2022/09/07 09:25:55;;;;;;;6.60;5.70;;;;;;;26.48;40.51;101509.50;5070473;28;20905;-57
2022/09/07 09:28:22;;;;;;;7.45;6.40;;;;;;;26.51;40.43;101514.44;5070200;28;20443;-57
2022/09/07 09:30:48;;;;;;;7.18;5.78;;;;;;;26.63;40.87;101509.69;5069676;28;20453;-58
2022/09/07 09:33:19;;;;;;;7.82;5.97;;;;;;;26.68;40.24;101509.72;5070194;28;20426;-57
2022/09/07 09:35:48;;;;;;;7.50;5.35;;;;;;;26.62;39.76;101493.63;5069196;28;20390;-56
2022/09/07 09:38:34;;;;;;;7.15;5.60;;;;;;;26.72;40.10;101509.19;5071534;28;20477;-57
2022/09/07 09:41:08;;;;;;;7.00;5.78;;;;;;;26.66;40.11;101498.28;5071624;28;20379;-57
2022/09/07 09:44:10;;;;;;;8.60;5.75;;;;;;;26.75;40.59;101497.81;5071663;28;20387;-57
2022/09/07 09:46:36;;;;;;;9.52;5.53;;;;;;;26.80;39.98;101487.78;5068852;28;20422;-57
2022/09/07 09:49:18;;;;;;;9.25;6.13;;;;;;;27.00;39.48;101494.47;5071775;28;20387;-57
2022/09/07 09:51:46;;;;;;;7.43;5.50;;;;;;;27.10;39.58;101491.81;5071614;28;20404;-58
2022/09/07 09:54:35;;;;;;;6.10;5.40;;;;;;;27.06;39.72;101485.25;5071766;28;20367;-58
2022/09/07 09:57:00;;;;;;;7.68;5.55;;;;;;;27.07;39.45;101482.25;5071482;28;20386;-58
2022/09/07 09:59:31;;;;;;;11.57;5.50;;;;;;;26.99;39.22;101482.78;5071463;28;20462;-58
2022/09/07 10:01:57;;;;;;;7.50;5.97;;;;;;;26.98;39.29;101483.84;5071754;28;20379;-58
2022/09/07 10:04:22;;;;;;;7.10;5.30;;;;;;;26.97;39.29;101482.19;5071469;28;20382;-59
2022/09/07 10:07:13;;;;;;;7.87;5.27;;;;;;;27.09;39.21;101482.81;5071137;28;20513;-58
2022/09/07 10:09:47;;;;;;;7.55;5.25;;;;;;;27.05;39.36;101472.75;5071441;28;20383;-58
2022/09/07 10:12:31;;;;;;;8.95;4.95;;;;;;;27.08;38.75;101458.59;5071489;28;20448;-58
2022/09/07 10:15:00;;;;;;;6.20;5.00;;;;;;;27.13;39.09;101463.25;5071091;28;20375;-57
2022/09/07 10:17:32;;;;;;;7.57;4.85;;;;;;;27.22;39.11;101456.22;5071135;28;20383;-57
2022/09/07 10:20:19;;;;;;;5.90;5.20;;;;;;;27.22;38.64;101456.22;5071193;28;20371;-57
2022/09/07 10:22:55;;;;;;;12.67;5.40;;;;;;;27.17;39.04;101451.59;5069360;28;20391;-57
2022/09/07 10:25:44;;;;;;;6.27;4.70;;;;;;;27.14;39.51;101446.66;5070887;28;20433;-57
2022/09/07 10:28:11;;;;;;;6.57;5.00;;;;;;;27.16;38.61;101441.78;5070740;28;20391;-58
2022/09/07 10:31:08;;;;;;;5.82;4.57;;;;;;;27.24;38.47;101438.56;5070038;28;20444;-59
2022/09/07 10:33:54;;;;;;;9.15;4.55;;;;;;;27.34;38.43;101434.28;5070928;28;20387;-58
2022/09/07 10:36:19;;;;;;;5.25;4.68;;;;;;;27.40;38.12;101430.47;5070151;28;20379;-57
2022/09/07 10:39:09;;;;;;;6.60;4.30;;;;;;;27.43;38.25;101433.50;5068295;28;20444;-57
2022/09/07 10:41:47;;;;;;;6.03;4.20;;;;;;;27.44;38.25;101429.69;5067075;28;20493;-57
2022/09/07 10:44:31;;;;;;;5.22;4.38;;;;;;;27.41;37.76;101427.50;5070943;28;20793;-57
2022/09/07 10:47:22;;;;;;;5.63;4.50;;;;;;;27.47;37.85;101417.44;5068273;28;20502;-58
2022/09/07 10:50:14;;;;;;;6.55;4.38;;;;;;;27.54;37.42;101423.47;5070449;28;20383;-57
2022/09/07 10:53:02;;;;;;;7.47;3.97;;;;;;;27.54;36.93;101414.47;5070641;28;20935;-57
2022/09/07 10:55:35;;;;;;;5.80;3.85;;;;;;;27.63;37.12;101410.97;5070273;28;20922;-57
2022/09/07 10:58:24;;;;;;;6.70;3.80;;;;;;;27.76;36.83;101403.38;5070760;28;20383;-57
2022/09/07 11:01:23;;;;;;;5.88;3.88;;;;;;;27.72;37.00;101402.28;5070513;28;20386;-58
2022/09/07 11:04:10;;;;;;;4.95;3.53;;;;;;;27.68;36.88;101399.28;5070343;28;20908;-58
2022/09/07 11:06:40;;;;;;;4.57;3.10;;;;;;;27.76;36.20;101404.19;5052075;28;20520;-57
2022/09/07 11:09:21;;;;;;;4.85;3.22;;;;;;;27.75;35.89;101390.81;5070322;28;20383;-58
2022/09/07 11:12:13;;;;;;;5.67;3.33;;;;;;;27.83;35.43;101387.59;5069809;28;20799;-57
2022/09/07 11:14:48;;;;;;;3.72;3.20;;;;;;;27.93;35.04;101389.53;5067835;28;20395;-58
2022/09/07 11:17:21;;;;;;;4.63;3.17;;;;;;;27.94;35.06;101391.97;5070110;28;20465;-57
2022/09/07 11:20:08;;;;;;;4.25;3.30;;;;;;;27.95;35.07;101388.19;5069816;28;20831;-57
2022/09/07 11:22:41;;;;;;;5.50;3.15;;;;;;;27.96;34.99;101376.19;5070021;28;20383;-58
2022/09/07 11:25:31;;;;;;;6.38;3.20;;;;;;;27.99;34.97;101383.81;5069915;28;20367;-58
2022/09/07 11:28:02;;;;;;;4.97;3.63;;;;;;;27.98;35.41;101378.63;5069981;28;20387;-57
2022/09/07 11:30:39;;;;;;;6.03;3.33;;;;;;;28.13;34.97;101377.84;5069075;28;20457;-60
2022/09/07 11:33:15;;;;;;;3.50;3.20;;;;;;;28.14;34.35;101372.09;5069653;28;20376;-58
2022/09/07 11:35:54;;;;;;;4.20;2.90;;;;;;;28.13;33.88;101373.22;5069775;28;20470;-58
2022/09/07 11:38:29;;;;;;;4.75;3.33;;;;;;;28.18;34.17;101377.81;5070162;28;20401;-58
2022/09/07 11:41:11;;;;;;;4.43;2.90;;;;;;;28.12;34.45;101374.28;5033704;28;20413;-58
2022/09/07 11:43:42;;;;;;;3.40;3.10;;;;;;;28.14;33.96;101371.28;5034319;28;20390;-58
2022/09/07 11:46:20;;;;;;;5.28;3.05;;;;;;;28.12;33.72;101362.56;5069740;28;20548;-59
2022/09/07 11:48:55;;;;;;;5.35;3.00;;;;;;;28.10;33.46;101365.56;5069647;28;20379;-59
2022/09/07 11:51:41;;;;;;;3.40;3.10;;;;;;;28.10;33.62;101359.31;5069621;28;20383;-57
2022/09/07 11:54:50;;;;;;;3.88;3.10;;;;;;;28.14;34.03;101358.47;5069527;28;20971;-58
2022/09/07 11:57:51;;;;;;;3.55;2.95;;;;;;;28.18;33.74;101351.41;5068586;28;20399;-58
2022/09/07 12:00:20;;;;;;;4.45;2.80;;;;;;;28.21;33.05;101353.56;5036399;28;20422;-57
2022/09/07 12:02:53;;;;;;;5.03;2.97;;;;;;;28.27;33.67;101353.56;5069650;28;20437;-58